sensor_id;sensor_type;location;lat;lon;timestamp;temperature;humidity
12130;DHT22;6128;59.340;18.040;2023-01-29T00:00:08;1.80;99.90
12130;DHT22;6128;59.340;18.040;2023-01-29T00:02:36;1.80;99.90
12130;DHT22;6128;59.340;18.040;2023-01-29T00:05:04;1.80;99.90
12130;DHT22;6128;59.340;18.040;2023-01-29T00:07:32;1.80;99.90
12130;DHT22;6128;59.340;18.040;2023-01-29T00:09:59;1.80;99.90
12130;DHT22;6128;59.340;18.040;2023-01-29T00:12:26;1.90;99.90
12130;DHT22;6128;59.340;18.040;2023-01-29T00:14:53;1.90;99.90
12130;DHT22;6128;59.340;18.040;2023-01-29T00:17:21;1.90;99.90
12130;DHT22;6128;59.340;18.040;2023-01-29T00:19:49;1.90;99.90
12130;DHT22;6128;59.340;18.040;2023-01-29T00:22:16;1.90;99.90
12130;DHT22;6128;59.340;18.040;2023-01-29T00:24:43;1.90;99.90
12130;DHT22;6128;59.340;18.040;2023-01-29T00:27:10;1.90;99.90
12130;DHT22;6128;59.340;18.040;2023-01-29T00:29:37;1.90;99.90
12130;DHT22;6128;59.340;18.040;2023-01-29T00:32:04;1.90;99.90
12130;DHT22;6128;59.340;18.040;2023-01-29T00:34:33;1.90;99.90
12130;DHT22;6128;59.340;18.040;2023-01-29T00:37:02;1.90;99.90
12130;DHT22;6128;59.340;18.040;2023-01-29T00:39:33;1.90;99.90
12130;DHT22;6128;59.340;18.040;2023-01-29T00:42:04;1.90;99.90
12130;DHT22;6128;59.340;18.040;2023-01-29T00:44:49;1.90;99.90
12130;DHT22;6128;59.340;18.040;2023-01-29T00:47:25;1.90;99.90
12130;DHT22;6128;59.340;18.040;2023-01-29T00:50:00;1.90;99.90
12130;DHT22;6128;59.340;18.040;2023-01-29T00:52:30;1.90;99.90
12130;DHT22;6128;59.340;18.040;2023-01-29T00:54:59;1.90;99.90
12130;DHT22;6128;59.340;18.040;2023-01-29T00:57:28;1.90;99.90
12130;DHT22;6128;59.340;18.040;2023-01-29T00:59:55;1.80;99.90
12130;DHT22;6128;59.340;18.040;2023-01-29T01:02:23;1.80;99.90
12130;DHT22;6128;59.340;18.040;2023-01-29T01:05:10;1.90;99.90
12130;DHT22;6128;59.340;18.040;2023-01-29T01:07:42;1.80;99.90
12130;DHT22;6128;59.340;18.040;2023-01-29T01:10:12;1.80;99.90
12130;DHT22;6128;59.340;18.040;2023-01-29T01:12:52;1.90;99.90
12130;DHT22;6128;59.340;18.040;2023-01-29T01:15:19;1.90;99.90
12130;DHT22;6128;59.340;18.040;2023-01-29T01:17:47;1.90;99.90
12130;DHT22;6128;59.340;18.040;2023-01-29T01:20:19;1.90;99.90
12130;DHT22;6128;59.340;18.040;2023-01-29T01:22:46;1.90;99.90
12130;DHT22;6128;59.340;18.040;2023-01-29T01:25:13;1.90;99.90
12130;DHT22;6128;59.340;18.040;2023-01-29T01:27:40;1.80;99.90
12130;DHT22;6128;59.340;18.040;2023-01-29T01:30:10;1.80;99.90
12130;DHT22;6128;59.340;18.040;2023-01-29T01:32:38;1.80;99.90
12130;DHT22;6128;59.340;18.040;2023-01-29T01:35:07;1.80;99.90
12130;DHT22;6128;59.340;18.040;2023-01-29T01:37:36;1.80;99.90
12130;DHT22;6128;59.340;18.040;2023-01-29T01:40:04;1.80;99.90
12130;DHT22;6128;59.340;18.040;2023-01-29T01:42:38;1.80;99.90
12130;DHT22;6128;59.340;18.040;2023-01-29T01:45:07;1.80;99.90
12130;DHT22;6128;59.340;18.040;2023-01-29T01:47:37;1.80;99.90
12130;DHT22;6128;59.340;18.040;2023-01-29T01:50:10;1.80;99.90
12130;DHT22;6128;59.340;18.040;2023-01-29T01:52:45;1.70;99.90
12130;DHT22;6128;59.340;18.040;2023-01-29T01:55:18;1.70;99.90
12130;DHT22;6128;59.340;18.040;2023-01-29T01:57:47;1.70;99.90
12130;DHT22;6128;59.340;18.040;2023-01-29T02:00:19;1.70;99.90
12130;DHT22;6128;59.340;18.040;2023-01-29T02:02:48;1.70;99.90
12130;DHT22;6128;59.340;18.040;2023-01-29T02:05:33;1.70;99.90
12130;DHT22;6128;59.340;18.040;2023-01-29T02:08:34;1.70;99.90
12130;DHT22;6128;59.340;18.040;2023-01-29T02:11:19;1.70;99.90
12130;DHT22;6128;59.340;18.040;2023-01-29T02:13:46;1.70;99.90
12130;DHT22;6128;59.340;18.040;2023-01-29T02:16:18;1.60;99.90
12130;DHT22;6128;59.340;18.040;2023-01-29T02:18:45;1.60;99.90
12130;DHT22;6128;59.340;18.040;2023-01-29T02:21:21;1.60;99.90
12130;DHT22;6128;59.340;18.040;2023-01-29T02:24:25;1.60;99.90
12130;DHT22;6128;59.340;18.040;2023-01-29T02:27:08;1.60;99.90
12130;DHT22;6128;59.340;18.040;2023-01-29T02:29:46;1.70;99.90
12130;DHT22;6128;59.340;18.040;2023-01-29T02:32:24;1.70;99.90
12130;DHT22;6128;59.340;18.040;2023-01-29T02:35:04;1.70;99.90
12130;DHT22;6128;59.340;18.040;2023-01-29T02:37:56;1.60;99.90
12130;DHT22;6128;59.340;18.040;2023-01-29T02:40:29;1.70;99.90
12130;DHT22;6128;59.340;18.040;2023-01-29T02:43:05;1.60;99.90
12130;DHT22;6128;59.340;18.040;2023-01-29T02:45:42;1.60;99.90
12130;DHT22;6128;59.340;18.040;2023-01-29T02:48:16;1.60;99.90
12130;DHT22;6128;59.340;18.040;2023-01-29T02:50:47;1.60;99.90
12130;DHT22;6128;59.340;18.040;2023-01-29T02:53:26;1.60;99.90
12130;DHT22;6128;59.340;18.040;2023-01-29T02:55:58;1.50;99.90
12130;DHT22;6128;59.340;18.040;2023-01-29T02:58:29;1.60;99.90
12130;DHT22;6128;59.340;18.040;2023-01-29T03:01:02;1.50;99.90
12130;DHT22;6128;59.340;18.040;2023-01-29T03:03:35;1.50;99.90
12130;DHT22;6128;59.340;18.040;2023-01-29T03:06:06;1.50;99.90
12130;DHT22;6128;59.340;18.040;2023-01-29T03:08:39;1.50;99.90
12130;DHT22;6128;59.340;18.040;2023-01-29T03:11:12;1.50;99.90
12130;DHT22;6128;59.340;18.040;2023-01-29T03:13:44;1.50;99.90
12130;DHT22;6128;59.340;18.040;2023-01-29T03:16:19;1.40;99.90
12130;DHT22;6128;59.340;18.040;2023-01-29T03:18:51;1.40;99.90
12130;DHT22;6128;59.340;18.040;2023-01-29T03:21:24;1.40;99.90
12130;DHT22;6128;59.340;18.040;2023-01-29T03:24:10;1.40;99.90
12130;DHT22;6128;59.340;18.040;2023-01-29T03:26:59;1.40;99.90
12130;DHT22;6128;59.340;18.040;2023-01-29T03:29:47;1.40;99.90
12130;DHT22;6128;59.340;18.040;2023-01-29T03:32:34;1.30;99.90
12130;DHT22;6128;59.340;18.040;2023-01-29T03:35:05;1.30;99.90
12130;DHT22;6128;59.340;18.040;2023-01-29T03:37:36;1.30;99.90
12130;DHT22;6128;59.340;18.040;2023-01-29T03:40:07;1.30;99.90
12130;DHT22;6128;59.340;18.040;2023-01-29T03:42:47;1.30;99.90
12130;DHT22;6128;59.340;18.040;2023-01-29T03:45:20;1.30;99.90
12130;DHT22;6128;59.340;18.040;2023-01-29T03:47:55;1.30;99.90
12130;DHT22;6128;59.340;18.040;2023-01-29T03:50:32;1.30;99.90
12130;DHT22;6128;59.340;18.040;2023-01-29T03:53:06;1.30;99.90
12130;DHT22;6128;59.340;18.040;2023-01-29T03:55:37;1.30;99.90
12130;DHT22;6128;59.340;18.040;2023-01-29T03:58:16;1.30;99.90
12130;DHT22;6128;59.340;18.040;2023-01-29T04:00:51;1.30;99.90
12130;DHT22;6128;59.340;18.040;2023-01-29T04:03:25;1.30;99.90
12130;DHT22;6128;59.340;18.040;2023-01-29T04:05:57;1.20;99.90
12130;DHT22;6128;59.340;18.040;2023-01-29T04:08:37;1.20;99.90
12130;DHT22;6128;59.340;18.040;2023-01-29T04:11:10;1.20;99.90
12130;DHT22;6128;59.340;18.040;2023-01-29T04:13:39;1.20;99.90
12130;DHT22;6128;59.340;18.040;2023-01-29T04:16:11;1.20;99.90
12130;DHT22;6128;59.340;18.040;2023-01-29T04:18:44;1.30;99.90
12130;DHT22;6128;59.340;18.040;2023-01-29T04:21:12;1.30;99.90
12130;DHT22;6128;59.340;18.040;2023-01-29T04:23:39;1.30;99.90
12130;DHT22;6128;59.340;18.040;2023-01-29T04:26:23;1.40;99.90
12130;DHT22;6128;59.340;18.040;2023-01-29T04:29:13;1.40;99.90
12130;DHT22;6128;59.340;18.040;2023-01-29T04:31:49;1.40;99.90
12130;DHT22;6128;59.340;18.040;2023-01-29T04:34:23;1.40;99.90
12130;DHT22;6128;59.340;18.040;2023-01-29T04:37:01;1.40;99.90
12130;DHT22;6128;59.340;18.040;2023-01-29T04:39:42;1.50;99.90
12130;DHT22;6128;59.340;18.040;2023-01-29T04:42:18;1.50;99.90
12130;DHT22;6128;59.340;18.040;2023-01-29T04:45:00;1.50;99.90
12130;DHT22;6128;59.340;18.040;2023-01-29T04:47:34;1.50;99.90
12130;DHT22;6128;59.340;18.040;2023-01-29T04:50:11;1.50;99.90
12130;DHT22;6128;59.340;18.040;2023-01-29T04:52:47;1.50;99.90
12130;DHT22;6128;59.340;18.040;2023-01-29T04:55:23;1.50;99.90
12130;DHT22;6128;59.340;18.040;2023-01-29T04:57:56;1.50;99.90
12130;DHT22;6128;59.340;18.040;2023-01-29T05:00:29;1.50;99.90
12130;DHT22;6128;59.340;18.040;2023-01-29T05:02:59;1.50;99.90
12130;DHT22;6128;59.340;18.040;2023-01-29T05:05:28;1.50;99.90
12130;DHT22;6128;59.340;18.040;2023-01-29T05:07:56;1.50;99.90
12130;DHT22;6128;59.340;18.040;2023-01-29T05:10:24;1.50;99.90
12130;DHT22;6128;59.340;18.040;2023-01-29T05:12:55;1.50;99.90
12130;DHT22;6128;59.340;18.040;2023-01-29T05:15:26;1.50;99.90
12130;DHT22;6128;59.340;18.040;2023-01-29T05:17:55;1.50;99.90
12130;DHT22;6128;59.340;18.040;2023-01-29T05:20:29;1.50;99.90
12130;DHT22;6128;59.340;18.040;2023-01-29T05:22:57;1.50;99.90
12130;DHT22;6128;59.340;18.040;2023-01-29T05:25:27;1.60;99.90
12130;DHT22;6128;59.340;18.040;2023-01-29T05:27:55;1.50;99.90
12130;DHT22;6128;59.340;18.040;2023-01-29T05:30:32;1.60;99.90
12130;DHT22;6128;59.340;18.040;2023-01-29T05:33:00;1.50;99.90
12130;DHT22;6128;59.340;18.040;2023-01-29T05:35:29;1.50;99.90
12130;DHT22;6128;59.340;18.040;2023-01-29T05:37:56;1.50;99.90
12130;DHT22;6128;59.340;18.040;2023-01-29T05:40:24;1.50;99.90
12130;DHT22;6128;59.340;18.040;2023-01-29T05:42:51;1.50;99.90
12130;DHT22;6128;59.340;18.040;2023-01-29T05:45:19;1.50;99.90
12130;DHT22;6128;59.340;18.040;2023-01-29T05:47:46;1.50;99.90
12130;DHT22;6128;59.340;18.040;2023-01-29T05:50:14;1.50;99.90
12130;DHT22;6128;59.340;18.040;2023-01-29T05:52:42;1.40;99.90
12130;DHT22;6128;59.340;18.040;2023-01-29T05:55:10;1.50;99.90
12130;DHT22;6128;59.340;18.040;2023-01-29T05:57:39;1.40;99.90
12130;DHT22;6128;59.340;18.040;2023-01-29T06:00:07;1.40;99.90
12130;DHT22;6128;59.340;18.040;2023-01-29T06:02:35;1.40;99.90
12130;DHT22;6128;59.340;18.040;2023-01-29T06:05:02;1.40;99.90
12130;DHT22;6128;59.340;18.040;2023-01-29T06:07:29;1.40;99.90
12130;DHT22;6128;59.340;18.040;2023-01-29T06:09:58;1.40;99.90
12130;DHT22;6128;59.340;18.040;2023-01-29T06:12:25;1.40;99.90
12130;DHT22;6128;59.340;18.040;2023-01-29T06:14:52;1.40;99.90
12130;DHT22;6128;59.340;18.040;2023-01-29T06:17:20;1.40;99.90
12130;DHT22;6128;59.340;18.040;2023-01-29T06:19:50;1.40;99.90
12130;DHT22;6128;59.340;18.040;2023-01-29T06:22:17;1.40;99.90
12130;DHT22;6128;59.340;18.040;2023-01-29T06:24:44;1.40;99.90
12130;DHT22;6128;59.340;18.040;2023-01-29T06:27:12;1.40;99.90
12130;DHT22;6128;59.340;18.040;2023-01-29T06:29:40;1.50;99.90
12130;DHT22;6128;59.340;18.040;2023-01-29T06:32:08;1.50;99.90
12130;DHT22;6128;59.340;18.040;2023-01-29T06:34:35;1.50;99.90
12130;DHT22;6128;59.340;18.040;2023-01-29T06:37:02;1.50;99.90
12130;DHT22;6128;59.340;18.040;2023-01-29T06:39:30;1.50;99.90
12130;DHT22;6128;59.340;18.040;2023-01-29T06:41:57;1.50;99.90
12130;DHT22;6128;59.340;18.040;2023-01-29T06:44:25;1.50;99.90
12130;DHT22;6128;59.340;18.040;2023-01-29T06:46:53;1.50;99.90
12130;DHT22;6128;59.340;18.040;2023-01-29T06:49:20;1.50;99.90
12130;DHT22;6128;59.340;18.040;2023-01-29T06:51:47;1.50;99.90
12130;DHT22;6128;59.340;18.040;2023-01-29T06:54:14;1.50;99.90
12130;DHT22;6128;59.340;18.040;2023-01-29T06:56:42;1.50;99.90
12130;DHT22;6128;59.340;18.040;2023-01-29T06:59:10;1.50;99.90
12130;DHT22;6128;59.340;18.040;2023-01-29T07:01:39;1.50;99.90
12130;DHT22;6128;59.340;18.040;2023-01-29T07:04:09;1.50;99.90
12130;DHT22;6128;59.340;18.040;2023-01-29T07:06:36;1.50;99.90
12130;DHT22;6128;59.340;18.040;2023-01-29T07:09:04;1.50;99.90
12130;DHT22;6128;59.340;18.040;2023-01-29T07:11:33;1.50;99.90
12130;DHT22;6128;59.340;18.040;2023-01-29T07:14:02;1.40;99.90
12130;DHT22;6128;59.340;18.040;2023-01-29T07:16:29;1.40;99.90
12130;DHT22;6128;59.340;18.040;2023-01-29T07:18:58;1.40;99.90
12130;DHT22;6128;59.340;18.040;2023-01-29T07:21:25;1.40;99.90
12130;DHT22;6128;59.340;18.040;2023-01-29T07:23:52;1.40;99.90
12130;DHT22;6128;59.340;18.040;2023-01-29T07:26:20;1.40;99.90
12130;DHT22;6128;59.340;18.040;2023-01-29T07:28:47;1.40;99.90
12130;DHT22;6128;59.340;18.040;2023-01-29T07:31:14;1.40;99.90
12130;DHT22;6128;59.340;18.040;2023-01-29T07:33:42;1.40;99.90
12130;DHT22;6128;59.340;18.040;2023-01-29T07:36:12;1.40;99.90
12130;DHT22;6128;59.340;18.040;2023-01-29T07:38:41;1.40;99.90
12130;DHT22;6128;59.340;18.040;2023-01-29T07:41:09;1.40;99.90
12130;DHT22;6128;59.340;18.040;2023-01-29T07:43:37;1.40;99.90
12130;DHT22;6128;59.340;18.040;2023-01-29T07:46:04;1.50;99.90
12130;DHT22;6128;59.340;18.040;2023-01-29T07:48:33;1.50;99.90
12130;DHT22;6128;59.340;18.040;2023-01-29T07:51:01;1.50;99.90
12130;DHT22;6128;59.340;18.040;2023-01-29T07:53:29;1.60;99.90
12130;DHT22;6128;59.340;18.040;2023-01-29T07:55:57;1.60;99.90
12130;DHT22;6128;59.340;18.040;2023-01-29T07:58:24;1.60;99.90
12130;DHT22;6128;59.340;18.040;2023-01-29T08:00:52;1.60;99.90
12130;DHT22;6128;59.340;18.040;2023-01-29T08:03:19;1.60;99.90
12130;DHT22;6128;59.340;18.040;2023-01-29T08:05:46;1.60;99.90
12130;DHT22;6128;59.340;18.040;2023-01-29T08:08:13;1.60;99.90
12130;DHT22;6128;59.340;18.040;2023-01-29T08:10:42;1.60;99.90
12130;DHT22;6128;59.340;18.040;2023-01-29T08:13:09;1.70;99.90
12130;DHT22;6128;59.340;18.040;2023-01-29T08:15:36;1.70;99.90
12130;DHT22;6128;59.340;18.040;2023-01-29T08:18:06;1.80;99.90
12130;DHT22;6128;59.340;18.040;2023-01-29T08:20:34;1.80;99.90
12130;DHT22;6128;59.340;18.040;2023-01-29T08:23:03;1.80;99.90
12130;DHT22;6128;59.340;18.040;2023-01-29T08:25:30;1.80;99.90
12130;DHT22;6128;59.340;18.040;2023-01-29T08:28:00;1.90;99.90
12130;DHT22;6128;59.340;18.040;2023-01-29T08:30:30;1.90;99.90
12130;DHT22;6128;59.340;18.040;2023-01-29T08:32:58;1.90;99.90
12130;DHT22;6128;59.340;18.040;2023-01-29T08:35:26;1.90;99.90
12130;DHT22;6128;59.340;18.040;2023-01-29T08:37:53;2.00;99.90
12130;DHT22;6128;59.340;18.040;2023-01-29T08:40:21;2.00;99.90
12130;DHT22;6128;59.340;18.040;2023-01-29T08:42:48;2.00;99.90
12130;DHT22;6128;59.340;18.040;2023-01-29T08:45:17;2.00;99.90
12130;DHT22;6128;59.340;18.040;2023-01-29T08:47:45;2.00;99.90
12130;DHT22;6128;59.340;18.040;2023-01-29T08:50:12;2.10;99.90
12130;DHT22;6128;59.340;18.040;2023-01-29T08:52:39;2.10;99.90
12130;DHT22;6128;59.340;18.040;2023-01-29T08:55:07;2.10;99.90
12130;DHT22;6128;59.340;18.040;2023-01-29T08:57:36;2.10;99.90
12130;DHT22;6128;59.340;18.040;2023-01-29T09:00:05;2.10;99.90
12130;DHT22;6128;59.340;18.040;2023-01-29T09:02:34;2.10;99.90
12130;DHT22;6128;59.340;18.040;2023-01-29T09:05:01;2.10;99.90
12130;DHT22;6128;59.340;18.040;2023-01-29T09:07:32;2.10;99.90
12130;DHT22;6128;59.340;18.040;2023-01-29T09:09:59;2.20;99.90
12130;DHT22;6128;59.340;18.040;2023-01-29T09:12:26;2.20;99.90
12130;DHT22;6128;59.340;18.040;2023-01-29T09:14:53;2.20;99.90
12130;DHT22;6128;59.340;18.040;2023-01-29T09:17:20;2.30;99.90
12130;DHT22;6128;59.340;18.040;2023-01-29T09:19:49;2.30;99.90
12130;DHT22;6128;59.340;18.040;2023-01-29T09:22:17;2.30;99.90
12130;DHT22;6128;59.340;18.040;2023-01-29T09:24:48;2.40;99.90
12130;DHT22;6128;59.340;18.040;2023-01-29T09:27:15;2.40;99.90
12130;DHT22;6128;59.340;18.040;2023-01-29T09:29:42;2.40;99.90
12130;DHT22;6128;59.340;18.040;2023-01-29T09:32:10;2.40;99.90
12130;DHT22;6128;59.340;18.040;2023-01-29T09:34:37;2.50;99.90
12130;DHT22;6128;59.340;18.040;2023-01-29T09:37:05;2.50;99.90
12130;DHT22;6128;59.340;18.040;2023-01-29T09:39:33;2.50;99.90
12130;DHT22;6128;59.340;18.040;2023-01-29T09:42:07;2.60;99.90
12130;DHT22;6128;59.340;18.040;2023-01-29T09:44:48;2.60;99.90
12130;DHT22;6128;59.340;18.040;2023-01-29T09:47:19;2.60;99.90
12130;DHT22;6128;59.340;18.040;2023-01-29T09:49:53;2.60;99.90
12130;DHT22;6128;59.340;18.040;2023-01-29T09:52:25;2.60;99.90
12130;DHT22;6128;59.340;18.040;2023-01-29T09:54:58;2.60;99.90
12130;DHT22;6128;59.340;18.040;2023-01-29T09:57:30;2.60;99.90
12130;DHT22;6128;59.340;18.040;2023-01-29T10:00:00;2.60;99.90
12130;DHT22;6128;59.340;18.040;2023-01-29T10:02:54;2.60;99.90
12130;DHT22;6128;59.340;18.040;2023-01-29T10:05:44;2.60;99.90
12130;DHT22;6128;59.340;18.040;2023-01-29T10:09:03;2.60;99.90
12130;DHT22;6128;59.340;18.040;2023-01-29T10:11:39;2.60;99.90
12130;DHT22;6128;59.340;18.040;2023-01-29T10:14:14;2.70;99.90
12130;DHT22;6128;59.340;18.040;2023-01-29T10:16:57;2.70;99.90
12130;DHT22;6128;59.340;18.040;2023-01-29T10:19:52;2.70;99.90
12130;DHT22;6128;59.340;18.040;2023-01-29T10:22:59;2.70;99.90
12130;DHT22;6128;59.340;18.040;2023-01-29T10:25:28;2.70;99.90
12130;DHT22;6128;59.340;18.040;2023-01-29T10:27:57;2.70;99.90
12130;DHT22;6128;59.340;18.040;2023-01-29T10:30:30;2.80;99.90
12130;DHT22;6128;59.340;18.040;2023-01-29T10:33:01;2.90;99.90
12130;DHT22;6128;59.340;18.040;2023-01-29T10:35:31;2.90;99.90
12130;DHT22;6128;59.340;18.040;2023-01-29T10:38:17;3.00;99.90
12130;DHT22;6128;59.340;18.040;2023-01-29T10:40:55;3.00;99.90
12130;DHT22;6128;59.340;18.040;2023-01-29T10:43:31;3.00;99.90
12130;DHT22;6128;59.340;18.040;2023-01-29T10:46:10;3.00;99.90
12130;DHT22;6128;59.340;18.040;2023-01-29T10:48:47;3.00;99.90
12130;DHT22;6128;59.340;18.040;2023-01-29T10:51:34;3.10;99.90
12130;DHT22;6128;59.340;18.040;2023-01-29T10:54:17;3.10;99.90
12130;DHT22;6128;59.340;18.040;2023-01-29T10:57:01;3.20;99.90
12130;DHT22;6128;59.340;18.040;2023-01-29T10:59:43;3.20;99.90
12130;DHT22;6128;59.340;18.040;2023-01-29T11:02:15;3.20;99.90
12130;DHT22;6128;59.340;18.040;2023-01-29T11:04:44;3.20;99.90
12130;DHT22;6128;59.340;18.040;2023-01-29T11:07:13;3.20;99.90
12130;DHT22;6128;59.340;18.040;2023-01-29T11:09:45;3.20;99.90
12130;DHT22;6128;59.340;18.040;2023-01-29T11:12:19;3.20;99.90
12130;DHT22;6128;59.340;18.040;2023-01-29T11:14:54;3.20;99.90
12130;DHT22;6128;59.340;18.040;2023-01-29T11:17:24;3.30;99.90
12130;DHT22;6128;59.340;18.040;2023-01-29T11:19:52;3.40;99.90
12130;DHT22;6128;59.340;18.040;2023-01-29T11:22:23;3.40;99.90
12130;DHT22;6128;59.340;18.040;2023-01-29T11:25:09;3.40;99.90
12130;DHT22;6128;59.340;18.040;2023-01-29T11:27:44;3.40;99.90
12130;DHT22;6128;59.340;18.040;2023-01-29T11:30:19;3.40;99.90
12130;DHT22;6128;59.340;18.040;2023-01-29T11:32:52;3.40;99.90
12130;DHT22;6128;59.340;18.040;2023-01-29T11:35:24;3.40;99.90
12130;DHT22;6128;59.340;18.040;2023-01-29T11:37:51;3.40;99.90
12130;DHT22;6128;59.340;18.040;2023-01-29T11:40:34;3.50;99.90
12130;DHT22;6128;59.340;18.040;2023-01-29T11:43:29;3.50;99.90
12130;DHT22;6128;59.340;18.040;2023-01-29T11:45:59;3.60;99.90
12130;DHT22;6128;59.340;18.040;2023-01-29T11:48:34;3.70;99.90
12130;DHT22;6128;59.340;18.040;2023-01-29T11:51:01;3.80;99.90
12130;DHT22;6128;59.340;18.040;2023-01-29T11:53:37;3.80;99.90
12130;DHT22;6128;59.340;18.040;2023-01-29T11:56:16;3.80;99.90
12130;DHT22;6128;59.340;18.040;2023-01-29T11:58:47;3.80;99.90
12130;DHT22;6128;59.340;18.040;2023-01-29T12:01:16;3.80;99.90
12130;DHT22;6128;59.340;18.040;2023-01-29T12:03:47;3.90;99.90
12130;DHT22;6128;59.340;18.040;2023-01-29T12:06:19;3.90;99.90
12130;DHT22;6128;59.340;18.040;2023-01-29T12:08:53;3.90;99.90
12130;DHT22;6128;59.340;18.040;2023-01-29T12:11:27;3.90;99.90
12130;DHT22;6128;59.340;18.040;2023-01-29T12:13:58;3.90;99.90
12130;DHT22;6128;59.340;18.040;2023-01-29T12:16:29;4.00;99.90
12130;DHT22;6128;59.340;18.040;2023-01-29T12:19:06;4.00;99.90
12130;DHT22;6128;59.340;18.040;2023-01-29T12:21:43;4.10;99.90
12130;DHT22;6128;59.340;18.040;2023-01-29T12:24:24;4.10;99.90
12130;DHT22;6128;59.340;18.040;2023-01-29T12:27:00;4.10;99.90
12130;DHT22;6128;59.340;18.040;2023-01-29T12:29:39;4.10;99.90
12130;DHT22;6128;59.340;18.040;2023-01-29T12:32:25;4.10;99.90
12130;DHT22;6128;59.340;18.040;2023-01-29T12:34:57;4.00;99.90
12130;DHT22;6128;59.340;18.040;2023-01-29T12:37:34;4.00;99.90
12130;DHT22;6128;59.340;18.040;2023-01-29T12:40:11;4.00;99.90
12130;DHT22;6128;59.340;18.040;2023-01-29T12:42:40;4.00;99.90
12130;DHT22;6128;59.340;18.040;2023-01-29T12:45:15;4.00;99.90
12130;DHT22;6128;59.340;18.040;2023-01-29T12:47:47;4.00;99.90
12130;DHT22;6128;59.340;18.040;2023-01-29T12:50:19;4.10;99.90
12130;DHT22;6128;59.340;18.040;2023-01-29T12:52:49;4.10;99.90
12130;DHT22;6128;59.340;18.040;2023-01-29T12:55:19;4.10;99.90
12130;DHT22;6128;59.340;18.040;2023-01-29T12:57:52;4.10;99.90
12130;DHT22;6128;59.340;18.040;2023-01-29T13:00:23;4.20;99.90
12130;DHT22;6128;59.340;18.040;2023-01-29T13:02:57;4.20;99.90
12130;DHT22;6128;59.340;18.040;2023-01-29T13:05:27;4.20;99.90
12130;DHT22;6128;59.340;18.040;2023-01-29T13:08:00;4.20;99.90
12130;DHT22;6128;59.340;18.040;2023-01-29T13:10:31;4.20;99.90
12130;DHT22;6128;59.340;18.040;2023-01-29T13:13:04;4.20;99.90
12130;DHT22;6128;59.340;18.040;2023-01-29T13:15:35;4.20;99.90
12130;DHT22;6128;59.340;18.040;2023-01-29T13:21:03;4.20;99.90
12130;DHT22;6128;59.340;18.040;2023-01-29T13:23:33;4.20;99.90
12130;DHT22;6128;59.340;18.040;2023-01-29T13:26:01;4.20;99.90
12130;DHT22;6128;59.340;18.040;2023-01-29T13:28:28;4.20;99.90
12130;DHT22;6128;59.340;18.040;2023-01-29T13:31:22;4.30;99.90
12130;DHT22;6128;59.340;18.040;2023-01-29T13:33:56;4.30;99.90
12130;DHT22;6128;59.340;18.040;2023-01-29T13:36:27;4.30;99.90
12130;DHT22;6128;59.340;18.040;2023-01-29T13:39:00;4.30;99.90
12130;DHT22;6128;59.340;18.040;2023-01-29T13:41:33;4.30;99.90
12130;DHT22;6128;59.340;18.040;2023-01-29T13:44:01;4.30;99.90
12130;DHT22;6128;59.340;18.040;2023-01-29T13:46:31;4.30;99.90
12130;DHT22;6128;59.340;18.040;2023-01-29T13:48:59;4.40;99.90
12130;DHT22;6128;59.340;18.040;2023-01-29T13:51:33;4.40;99.90
12130;DHT22;6128;59.340;18.040;2023-01-29T13:54:03;4.40;99.90
12130;DHT22;6128;59.340;18.040;2023-01-29T13:56:44;4.40;99.90
12130;DHT22;6128;59.340;18.040;2023-01-29T13:59:23;4.40;99.90
12130;DHT22;6128;59.340;18.040;2023-01-29T14:02:02;4.40;99.90
12130;DHT22;6128;59.340;18.040;2023-01-29T14:04:31;4.40;99.90
12130;DHT22;6128;59.340;18.040;2023-01-29T14:06:59;4.40;99.90
12130;DHT22;6128;59.340;18.040;2023-01-29T14:12:40;4.50;99.90
12130;DHT22;6128;59.340;18.040;2023-01-29T14:15:28;4.50;99.90
12130;DHT22;6128;59.340;18.040;2023-01-29T14:18:15;4.50;99.90
12130;DHT22;6128;59.340;18.040;2023-01-29T14:21:16;4.50;99.90
12130;DHT22;6128;59.340;18.040;2023-01-29T14:23:48;4.50;99.90
12130;DHT22;6128;59.340;18.040;2023-01-29T14:26:23;4.50;99.90
12130;DHT22;6128;59.340;18.040;2023-01-29T14:28:55;4.50;99.90
12130;DHT22;6128;59.340;18.040;2023-01-29T14:31:39;4.50;99.90
12130;DHT22;6128;59.340;18.040;2023-01-29T14:34:15;4.50;99.90
12130;DHT22;6128;59.340;18.040;2023-01-29T14:36:45;4.60;99.90
12130;DHT22;6128;59.340;18.040;2023-01-29T14:39:22;4.60;99.90
12130;DHT22;6128;59.340;18.040;2023-01-29T14:41:51;4.60;99.90
12130;DHT22;6128;59.340;18.040;2023-01-29T14:48:00;4.60;99.90
12130;DHT22;6128;59.340;18.040;2023-01-29T14:50:49;4.60;99.90
12130;DHT22;6128;59.340;18.040;2023-01-29T14:53:21;4.60;99.90
12130;DHT22;6128;59.340;18.040;2023-01-29T14:55:55;4.60;99.90
12130;DHT22;6128;59.340;18.040;2023-01-29T14:58:28;4.70;99.90
12130;DHT22;6128;59.340;18.040;2023-01-29T15:01:00;4.70;99.90
12130;DHT22;6128;59.340;18.040;2023-01-29T15:03:38;4.70;99.90
12130;DHT22;6128;59.340;18.040;2023-01-29T15:06:13;4.70;99.90
12130;DHT22;6128;59.340;18.040;2023-01-29T15:08:46;4.70;99.90
12130;DHT22;6128;59.340;18.040;2023-01-29T15:11:21;4.70;99.90
12130;DHT22;6128;59.340;18.040;2023-01-29T15:14:10;4.70;99.90
12130;DHT22;6128;59.340;18.040;2023-01-29T15:16:46;4.70;99.90
12130;DHT22;6128;59.340;18.040;2023-01-29T15:19:20;4.80;99.90
12130;DHT22;6128;59.340;18.040;2023-01-29T15:22:07;4.80;99.90
12130;DHT22;6128;59.340;18.040;2023-01-29T15:24:34;4.80;99.90
12130;DHT22;6128;59.340;18.040;2023-01-29T15:27:02;4.80;99.90
12130;DHT22;6128;59.340;18.040;2023-01-29T15:29:30;4.80;99.90
12130;DHT22;6128;59.340;18.040;2023-01-29T15:31:57;4.80;99.90
12130;DHT22;6128;59.340;18.040;2023-01-29T15:34:25;4.80;99.90
12130;DHT22;6128;59.340;18.040;2023-01-29T15:36:55;4.90;99.90
12130;DHT22;6128;59.340;18.040;2023-01-29T15:39:24;4.90;99.90
12130;DHT22;6128;59.340;18.040;2023-01-29T15:42:13;4.90;99.90
12130;DHT22;6128;59.340;18.040;2023-01-29T15:44:46;4.90;99.90
12130;DHT22;6128;59.340;18.040;2023-01-29T15:47:14;5.00;99.90
12130;DHT22;6128;59.340;18.040;2023-01-29T15:49:44;5.00;99.90
12130;DHT22;6128;59.340;18.040;2023-01-29T15:52:16;5.00;99.90
12130;DHT22;6128;59.340;18.040;2023-01-29T15:54:45;5.00;99.90
12130;DHT22;6128;59.340;18.040;2023-01-29T15:57:19;5.00;99.90
12130;DHT22;6128;59.340;18.040;2023-01-29T15:59:49;5.00;99.90
12130;DHT22;6128;59.340;18.040;2023-01-29T16:02:36;5.00;99.90
12130;DHT22;6128;59.340;18.040;2023-01-29T16:05:09;5.10;99.90
12130;DHT22;6128;59.340;18.040;2023-01-29T16:07:37;5.10;99.90
12130;DHT22;6128;59.340;18.040;2023-01-29T16:10:10;5.10;99.90
12130;DHT22;6128;59.340;18.040;2023-01-29T16:12:40;5.10;99.90
12130;DHT22;6128;59.340;18.040;2023-01-29T16:15:16;5.10;99.90
12130;DHT22;6128;59.340;18.040;2023-01-29T16:17:48;5.10;99.90
12130;DHT22;6128;59.340;18.040;2023-01-29T16:20:31;5.10;99.90
12130;DHT22;6128;59.340;18.040;2023-01-29T16:22:58;5.10;99.90
12130;DHT22;6128;59.340;18.040;2023-01-29T16:25:28;5.10;99.90
12130;DHT22;6128;59.340;18.040;2023-01-29T16:27:56;5.20;99.90